createdAt,value
2022-11-24T00:00:11.600Z,98872.16
2022-11-24T00:01:18.312Z,98878.38
2022-11-24T00:02:05.399Z,98875.81
2022-11-24T00:02:52.600Z,98878.66
2022-11-24T00:03:39.694Z,98884.91
2022-11-24T00:04:26.814Z,98883.94
2022-11-24T00:05:13.799Z,98889.97
2022-11-24T00:06:11.545Z,98885.91
2022-11-24T00:06:58.467Z,98885.78
2022-11-24T00:07:45.494Z,98893.63
2022-11-24T00:08:32.536Z,98890.09
2022-11-24T00:09:19.694Z,98893.00
2022-11-24T00:10:07.225Z,98896.87
2022-11-24T00:10:54.144Z,98892.72
2022-11-24T00:11:41.080Z,98895.56
2022-11-24T00:12:27.971Z,98892.59
2022-11-24T00:13:14.923Z,98885.91
2022-11-24T00:14:02.538Z,98899.16
2022-11-24T00:14:49.464Z,98902.06
2022-11-24T00:15:36.481Z,98894.75
2022-11-24T00:16:26.746Z,98897.94
2022-11-24T00:17:13.751Z,98901.75
2022-11-24T00:18:00.642Z,98899.16
2022-11-24T00:18:49.711Z,98896.81
2022-11-24T00:19:36.588Z,98899.84
2022-11-24T00:20:23.526Z,98902.47
2022-11-24T00:21:10.701Z,98898.00
2022-11-24T00:21:57.628Z,98907.22
2022-11-24T00:22:44.512Z,98909.66
2022-11-24T00:23:31.761Z,98913.22
2022-11-24T00:24:18.809Z,98907.62
2022-11-24T00:25:06.178Z,98909.84
2022-11-24T00:25:53.119Z,98914.69
2022-11-24T00:26:40.044Z,98917.69
2022-11-24T00:27:27.027Z,98914.03
2022-11-24T00:28:13.995Z,98916.69
2022-11-24T00:29:03.313Z,98919.22
2022-11-24T00:29:50.379Z,98923.75
2022-11-24T00:30:37.470Z,98932.13
2022-11-24T00:31:26.838Z,98925.75
2022-11-24T00:32:13.845Z,98927.97
2022-11-24T00:33:00.920Z,98926.41
2022-11-24T00:33:49.633Z,98938.00
2022-11-24T00:34:36.542Z,98921.56
2022-11-24T00:35:23.468Z,98931.59
2022-11-24T00:36:10.395Z,98929.75
2022-11-24T00:36:57.318Z,98936.00
2022-11-24T00:37:44.384Z,98924.97
2022-11-24T00:38:31.405Z,98934.66
2022-11-24T00:39:18.295Z,98928.91
2022-11-24T00:40:05.916Z,98923.91
2022-11-24T00:40:53.441Z,98930.25
2022-11-24T00:41:40.661Z,98935.13
2022-11-24T00:42:27.565Z,98935.97
2022-11-24T00:43:14.616Z,98937.12
2022-11-24T00:44:01.971Z,98938.84
2022-11-24T00:44:48.911Z,98939.50
2022-11-24T00:45:35.853Z,98944.03
2022-11-24T00:46:23.654Z,98944.56
2022-11-24T00:47:10.912Z,98943.03
2022-11-24T00:47:58.009Z,98948.22
2022-11-24T00:48:44.958Z,98953.56
2022-11-24T00:49:31.900Z,98946.38
2022-11-24T00:50:19.133Z,98951.06
2022-11-24T00:51:08.931Z,98952.22
2022-11-24T00:51:55.848Z,98953.06
2022-11-24T00:52:43.056Z,98949.41
2022-11-24T00:53:30.589Z,98952.72
2022-11-24T00:54:18.409Z,98953.72
2022-11-24T00:55:05.795Z,98956.22
2022-11-24T00:55:53.242Z,98953.69
2022-11-24T00:56:40.160Z,98958.41
2022-11-24T00:57:27.089Z,98949.84
2022-11-24T00:58:13.963Z,98957.41
2022-11-24T00:59:01.018Z,98961.59
2022-11-24T00:59:48.007Z,98958.41
2022-11-24T01:00:35.461Z,98959.59
2022-11-24T01:01:27.863Z,98961.47
2022-11-24T01:02:15.139Z,98961.94
2022-11-24T01:03:02.240Z,98964.94
2022-11-24T01:03:49.944Z,98964.91
2022-11-24T01:04:37.075Z,98966.75
2022-11-24T01:05:24.052Z,98966.38
2022-11-24T01:06:17.150Z,98957.19
2022-11-24T01:07:04.079Z,98956.06
2022-11-24T01:07:51.002Z,98968.59
2022-11-24T01:08:38.693Z,98960.41
2022-11-24T01:09:25.595Z,98957.25
2022-11-24T01:10:12.648Z,98960.75
2022-11-24T01:11:52.961Z,98962.28
2022-11-24T01:12:39.928Z,98960.44
2022-11-24T01:13:26.824Z,98961.06
2022-11-24T01:14:13.785Z,98964.75
2022-11-24T01:15:00.792Z,98966.59
2022-11-24T01:15:47.861Z,98968.28
2022-11-24T01:16:35.542Z,98966.28
2022-11-24T01:17:22.487Z,98959.28
2022-11-24T01:18:10.176Z,98970.81
2022-11-24T01:18:57.862Z,98965.97
2022-11-24T01:19:47.403Z,98965.63
2022-11-24T01:20:34.335Z,98965.47
2022-11-24T01:21:21.862Z,98972.81
2022-11-24T01:22:08.876Z,98964.78
2022-11-24T01:22:55.820Z,98973.34
2022-11-24T01:23:43.102Z,98965.63
2022-11-24T01:24:30.100Z,98974.69
2022-11-24T01:25:17.198Z,98970.81
2022-11-24T01:26:06.466Z,98973.66
2022-11-24T01:26:53.398Z,98976.50
2022-11-24T01:27:40.341Z,98972.16
2022-11-24T01:28:27.282Z,98979.37
2022-11-24T01:29:14.296Z,98974.97
2022-11-24T01:30:01.289Z,98975.81
2022-11-24T01:30:58.371Z,98977.16
2022-11-24T01:31:45.772Z,98977.16
2022-11-24T01:32:36.568Z,98977.81
2022-11-24T01:33:23.505Z,98981.03
2022-11-24T01:34:10.517Z,98988.41
2022-11-24T01:34:57.563Z,98987.72
2022-11-24T01:35:44.463Z,98988.75
2022-11-24T01:36:31.364Z,98985.06
2022-11-24T01:37:18.368Z,98981.53
2022-11-24T01:38:05.236Z,98987.94
2022-11-24T01:38:52.209Z,98987.97
2022-11-24T01:39:39.203Z,98982.13
2022-11-24T01:40:26.086Z,98986.78
2022-11-24T01:41:18.449Z,98981.25
2022-11-24T01:42:05.453Z,98986.59
2022-11-24T01:42:53.498Z,98986.25
2022-11-24T01:43:43.945Z,98983.69
2022-11-24T01:44:31.771Z,98981.03
2022-11-24T01:45:28.080Z,98984.06
2022-11-24T01:46:27.350Z,98989.06
2022-11-24T01:47:34.676Z,98988.94
2022-11-24T01:48:27.530Z,98990.62
2022-11-24T01:49:21.144Z,98987.94
2022-11-24T01:50:14.364Z,98981.94
2022-11-24T01:51:28.526Z,98994.28
2022-11-24T01:52:18.502Z,98986.59
2022-11-24T01:53:05.612Z,98991.78
2022-11-24T01:54:05.749Z,99001.63
2022-11-24T01:54:56.330Z,98999.47
2022-11-24T01:55:43.090Z,98998.28
2022-11-24T01:56:30.663Z,99006.31
2022-11-24T01:57:26.178Z,98996.56
2022-11-24T01:58:25.189Z,98996.75
2022-11-24T01:59:13.082Z,98999.94
2022-11-24T02:00:07.922Z,99005.81
2022-11-24T02:00:55.149Z,99004.81
2022-11-24T02:01:42.322Z,99005.63
2022-11-24T02:02:30.211Z,99008.31
2022-11-24T02:03:20.201Z,99010.31
2022-11-24T02:04:12.762Z,99010.81
2022-11-24T02:05:04.184Z,99014.78
2022-11-24T02:06:08.460Z,99012.31
2022-11-24T02:06:57.041Z,99012.16
2022-11-24T02:07:44.143Z,99016.31
2022-11-24T02:09:06.531Z,99017.31
2022-11-24T02:09:56.414Z,99014.66
2022-11-24T02:10:43.657Z,99017.53
2022-11-24T02:11:35.508Z,99015.53
2022-11-24T02:12:23.405Z,99017.00
2022-11-24T02:13:10.335Z,99017.34
2022-11-24T02:13:57.642Z,99017.34
2022-11-24T02:14:45.258Z,99017.19
2022-11-24T02:15:32.801Z,99017.31
2022-11-24T02:16:19.985Z,99013.16
2022-11-24T02:17:07.061Z,99013.50
2022-11-24T02:17:54.096Z,99003.47
2022-11-24T02:18:42.449Z,99011.81
2022-11-24T02:19:32.922Z,99005.81
2022-11-24T02:20:19.869Z,99012.50
2022-11-24T02:21:07.842Z,99010.47
2022-11-24T02:21:54.840Z,99020.03
2022-11-24T02:23:02.325Z,99017.00
2022-11-24T02:23:49.237Z,99008.44
2022-11-24T02:24:45.776Z,99014.47
2022-11-24T02:25:32.785Z,99011.44
2022-11-24T02:26:42.556Z,99011.94
2022-11-24T02:27:29.555Z,99016.69
2022-11-24T02:28:19.421Z,99018.66
2022-11-24T02:29:06.559Z,99019.84
2022-11-24T02:29:53.536Z,99022.69
2022-11-24T02:30:40.615Z,99019.53
2022-11-24T02:31:28.192Z,99012.31
2022-11-24T02:32:16.083Z,99014.19
2022-11-24T02:33:03.484Z,99015.19
2022-11-24T02:33:51.210Z,99016.22
2022-11-24T02:34:38.134Z,99013.19
2022-11-24T02:35:27.346Z,99009.00
2022-11-24T02:36:14.275Z,99013.19
2022-11-24T02:37:01.190Z,99016.69
2022-11-24T02:37:48.860Z,99016.69
2022-11-24T02:38:36.372Z,99016.34
2022-11-24T02:39:23.409Z,99011.00
2022-11-24T02:40:10.925Z,99018.19
2022-11-24T02:40:58.424Z,99017.19
2022-11-24T02:41:51.718Z,99021.88
2022-11-24T02:42:43.514Z,99019.88
2022-11-24T02:43:34.651Z,99019.34
2022-11-24T02:44:22.986Z,99027.06
2022-11-24T02:45:10.617Z,99020.06
2022-11-24T02:45:57.757Z,99020.38
2022-11-24T02:46:44.772Z,99018.00
2022-11-24T02:47:31.808Z,99016.03
2022-11-24T02:48:19.041Z,99021.06
2022-11-24T02:49:05.979Z,99022.91
2022-11-24T02:49:52.952Z,99022.56
2022-11-24T02:50:39.864Z,99030.78
2022-11-24T02:51:26.857Z,99026.09
2022-11-24T02:52:14.034Z,99027.25
2022-11-24T02:53:00.912Z,99021.06
2022-11-24T02:53:47.896Z,99026.41
2022-11-24T02:54:35.324Z,99017.69
2022-11-24T02:55:23.767Z,99021.41
2022-11-24T02:56:10.721Z,99020.88
2022-11-24T02:56:57.988Z,99022.41
2022-11-24T02:57:44.949Z,99027.59
2022-11-24T02:58:31.855Z,99019.34
2022-11-24T02:59:19.671Z,99021.19
2022-11-24T03:00:07.218Z,99020.03
2022-11-24T03:00:57.576Z,99026.03
2022-11-24T03:01:44.677Z,99023.84
2022-11-24T03:02:31.757Z,99021.34
2022-11-24T03:03:18.940Z,99018.37
2022-11-24T03:04:05.966Z,99023.41
2022-11-24T03:04:52.936Z,99020.06
2022-11-24T03:05:39.950Z,99019.72
2022-11-24T03:06:27.124Z,99021.72
2022-11-24T03:07:14.992Z,99014.88
2022-11-24T03:08:02.148Z,99022.03
2022-11-24T03:08:49.026Z,99022.56
2022-11-24T03:09:36.061Z,99014.88
2022-11-24T03:10:22.966Z,99022.22
2022-11-24T03:11:09.936Z,99025.09
2022-11-24T03:11:56.808Z,99027.75
2022-11-24T03:12:43.880Z,99025.41
2022-11-24T03:13:30.827Z,99024.56
2022-11-24T03:14:17.860Z,99030.59
2022-11-24T03:15:06.668Z,99027.91
2022-11-24T03:15:53.708Z,99024.72
2022-11-24T03:16:40.623Z,99028.41
2022-11-24T03:17:27.580Z,99032.78
2022-11-24T03:18:14.461Z,99029.91
2022-11-24T03:19:02.244Z,99027.75
2022-11-24T03:19:49.207Z,99030.28
2022-11-24T03:20:36.221Z,99038.31
2022-11-24T03:21:23.131Z,99037.81
2022-11-24T03:22:10.148Z,99028.28
2022-11-24T03:22:57.340Z,99029.62
2022-11-24T03:23:44.327Z,99035.78
2022-11-24T03:24:31.583Z,99039.00
2022-11-24T03:25:18.974Z,99044.03
2022-11-24T03:26:14.523Z,99036.00
2022-11-24T03:27:01.493Z,99031.78
2022-11-24T03:27:48.529Z,99036.97
2022-11-24T03:28:35.528Z,99031.47
2022-11-24T03:29:23.065Z,99033.09
2022-11-24T03:30:10.468Z,99036.12
2022-11-24T03:30:57.537Z,99027.59
2022-11-24T03:31:44.535Z,99041.34
2022-11-24T03:32:31.530Z,99033.47
2022-11-24T03:33:18.504Z,99029.47
2022-11-24T03:34:05.437Z,99034.47
2022-11-24T03:34:52.309Z,99032.28
2022-11-24T03:35:39.227Z,99032.66
2022-11-24T03:36:26.243Z,99033.84
2022-11-24T03:37:13.174Z,99035.50
2022-11-24T03:38:00.211Z,99025.97
2022-11-24T03:38:47.175Z,99033.47
2022-11-24T03:39:34.041Z,99034.31
2022-11-24T03:40:21.036Z,99025.59
2022-11-24T03:41:07.892Z,99035.47
2022-11-24T03:41:54.826Z,99026.13
2022-11-24T03:42:41.695Z,99026.13
2022-11-24T03:43:28.537Z,99025.13
2022-11-24T03:44:15.436Z,99024.63
2022-11-24T03:45:29.967Z,99031.31
2022-11-24T03:46:09.444Z,99027.47
2022-11-24T03:46:56.509Z,99031.31
2022-11-24T03:47:43.431Z,99029.81
2022-11-24T03:48:30.407Z,99032.16
2022-11-24T03:49:17.437Z,99034.16
2022-11-24T03:50:04.721Z,99027.47
2022-11-24T03:50:59.791Z,99033.31
2022-11-24T03:51:46.725Z,99032.31
2022-11-24T03:52:33.826Z,99037.19
2022-11-24T03:53:20.839Z,99037.34
2022-11-24T03:54:08.040Z,99033.50
2022-11-24T03:54:54.994Z,99032.00
2022-11-24T03:55:43.875Z,99040.69
2022-11-24T03:56:30.755Z,99034.81
2022-11-24T03:57:17.665Z,99038.69
2022-11-24T03:58:04.588Z,99044.19
2022-11-24T03:58:51.463Z,99052.22
2022-11-24T03:59:38.339Z,99047.03
2022-11-24T04:00:25.229Z,99048.56
2022-11-24T04:01:12.254Z,99047.53
2022-11-24T04:01:59.174Z,99049.38
2022-11-24T04:02:46.282Z,99051.38
2022-11-24T04:03:33.317Z,99051.38
2022-11-24T04:04:20.197Z,99047.87
2022-11-24T04:05:07.752Z,99055.72
2022-11-24T04:05:54.710Z,99048.03
2022-11-24T04:06:41.703Z,99045.53
2022-11-24T04:07:28.663Z,99044.03
2022-11-24T04:08:16.013Z,99040.69
2022-11-24T04:09:03.077Z,99058.75
2022-11-24T04:09:49.987Z,99059.09
2022-11-24T04:10:37.687Z,99061.41
2022-11-24T04:11:43.381Z,99055.41
2022-11-24T04:12:45.584Z,99062.59
2022-11-24T04:13:32.578Z,99055.75
2022-11-24T04:14:19.765Z,99063.09
2022-11-24T04:15:07.247Z,99060.94
2022-11-24T04:15:54.484Z,99059.41
2022-11-24T04:16:41.790Z,99062.09
2022-11-24T04:17:29.110Z,99066.78
2022-11-24T04:18:16.257Z,99066.78
2022-11-24T04:19:03.498Z,99067.12
2022-11-24T04:19:50.485Z,99076.13
2022-11-24T04:20:37.673Z,99081.47
2022-11-24T04:21:24.758Z,99077.97
2022-11-24T04:22:11.756Z,99082.31
2022-11-24T04:22:58.805Z,99079.66
2022-11-24T04:23:45.769Z,99086.34
2022-11-24T04:24:33.034Z,99091.69
2022-11-24T04:25:20.294Z,99082.31
2022-11-24T04:26:08.281Z,99088.34
2022-11-24T04:26:55.171Z,99088.16
2022-11-24T04:27:42.087Z,99086.50
2022-11-24T04:28:28.987Z,99098.72
2022-11-24T04:29:15.948Z,99100.56
2022-11-24T04:30:06.969Z,99095.34
2022-11-24T04:30:54.071Z,99101.87
2022-11-24T04:31:41.341Z,99098.38
2022-11-24T04:32:28.478Z,99100.38
2022-11-24T04:33:15.713Z,99102.88
2022-11-24T04:34:02.674Z,99106.38
2022-11-24T04:34:49.625Z,99106.22
2022-11-24T04:35:36.765Z,99105.53
2022-11-24T04:36:23.708Z,99110.41
2022-11-24T04:37:10.836Z,99110.06
2022-11-24T04:37:57.779Z,99112.06
2022-11-24T04:39:19.806Z,99112.22
2022-11-24T04:39:51.733Z,99105.72
2022-11-24T04:40:38.933Z,99115.06
2022-11-24T04:41:25.877Z,99111.56
2022-11-24T04:42:13.473Z,99116.91
2022-11-24T04:43:00.408Z,99114.41
2022-11-24T04:43:50.619Z,99110.56
2022-11-24T04:44:37.565Z,99114.56
2022-11-24T04:45:24.731Z,99112.41
2022-11-24T04:46:12.139Z,99116.63
2022-11-24T04:46:59.343Z,99120.25
2022-11-24T04:47:46.488Z,99120.25
2022-11-24T04:48:33.360Z,99120.62
2022-11-24T04:49:20.343Z,99130.81
2022-11-24T04:50:08.010Z,99120.94
2022-11-24T04:50:55.539Z,99128.28
2022-11-24T04:51:42.630Z,99123.75
2022-11-24T04:52:30.482Z,99135.66
2022-11-24T04:53:17.506Z,99130.13
2022-11-24T04:54:05.095Z,99127.62
2022-11-24T04:54:52.431Z,99139.34
2022-11-24T04:55:40.443Z,99136.97
2022-11-24T04:56:27.429Z,99131.47
2022-11-24T04:57:19.734Z,99136.66
2022-11-24T04:58:10.680Z,99137.16
2022-11-24T04:58:57.649Z,99136.16
2022-11-24T04:59:44.869Z,99141.34
2022-11-24T05:00:31.805Z,99141.00
2022-11-24T05:01:18.693Z,99148.88
2022-11-24T05:02:05.751Z,99133.81
2022-11-24T05:02:52.668Z,99135.66
2022-11-24T05:03:40.341Z,99137.31
2022-11-24T05:04:27.269Z,99137.31
2022-11-24T05:05:14.415Z,99134.66
2022-11-24T05:06:01.800Z,99132.81
2022-11-24T05:06:48.885Z,99142.50
2022-11-24T05:07:35.922Z,99134.66
2022-11-24T05:08:22.904Z,99140.34
2022-11-24T05:09:17.762Z,99138.19
2022-11-24T05:10:23.774Z,99141.53
2022-11-24T05:11:10.672Z,99142.50
2022-11-24T05:11:57.721Z,99144.53
2022-11-24T05:12:50.025Z,99143.53
2022-11-24T05:13:38.246Z,99141.34
2022-11-24T05:14:25.465Z,99135.66
2022-11-24T05:15:12.380Z,99141.53
2022-11-24T05:16:00.500Z,99140.84
2022-11-24T05:16:47.552Z,99142.69
2022-11-24T05:17:38.711Z,99146.38
2022-11-24T05:18:26.051Z,99136.50
2022-11-24T05:19:13.636Z,99141.19
2022-11-24T05:20:00.929Z,99144.19
2022-11-24T05:20:49.251Z,99144.53
2022-11-24T05:21:36.124Z,99141.19
2022-11-24T05:22:23.203Z,99141.19
2022-11-24T05:23:10.137Z,99141.34
2022-11-24T05:23:57.100Z,99139.19
2022-11-24T05:24:44.027Z,99136.50
2022-11-24T05:25:31.203Z,99141.50
2022-11-24T05:26:18.672Z,99136.16
2022-11-24T05:27:05.735Z,99141.50
2022-11-24T05:27:52.665Z,99137.00
2022-11-24T05:28:39.601Z,99136.00
2022-11-24T05:29:26.583Z,99140.69
2022-11-24T05:30:13.905Z,99142.53
2022-11-24T05:31:02.176Z,99138.66
2022-11-24T05:31:49.305Z,99137.34
2022-11-24T05:32:36.278Z,99133.63
2022-11-24T05:33:23.342Z,99140.31
2022-11-24T05:34:10.300Z,99139.84
2022-11-24T05:34:58.306Z,99144.69
2022-11-24T05:35:52.159Z,99134.16
2022-11-24T05:36:54.460Z,99143.88
2022-11-24T05:37:41.337Z,99147.37
2022-11-24T05:38:30.348Z,99141.84
2022-11-24T05:39:17.262Z,99144.84
2022-11-24T05:40:05.985Z,99148.56
2022-11-24T05:40:53.176Z,99151.22
2022-11-24T05:41:40.052Z,99155.56
2022-11-24T05:42:47.106Z,99148.72
2022-11-24T05:43:35.187Z,99153.72
2022-11-24T05:44:22.113Z,99149.22
2022-11-24T05:45:14.855Z,99153.72
2022-11-24T05:46:02.298Z,99158.59
2022-11-24T05:46:49.467Z,99158.91
2022-11-24T05:47:36.461Z,99159.75
2022-11-24T05:48:23.344Z,99157.72
2022-11-24T05:49:10.416Z,99161.75
2022-11-24T05:49:57.296Z,99160.91
2022-11-24T05:50:44.282Z,99158.59
2022-11-24T05:51:31.600Z,99167.59
2022-11-24T05:52:18.507Z,99171.31
2022-11-24T05:53:06.970Z,99168.63
2022-11-24T05:53:53.980Z,99169.78
2022-11-24T05:54:41.044Z,99172.63
2022-11-24T05:55:27.975Z,99170.78
2022-11-24T05:56:14.931Z,99170.47
2022-11-24T05:57:01.852Z,99171.13
2022-11-24T05:57:48.971Z,99175.31
2022-11-24T05:58:35.983Z,99172.97
2022-11-24T05:59:22.841Z,99174.81
2022-11-24T06:00:10.859Z,99170.94
2022-11-24T06:00:57.784Z,99168.94
2022-11-24T06:01:44.953Z,99180.00
2022-11-24T06:02:32.155Z,99180.31
2022-11-24T06:03:19.140Z,99183.19
2022-11-24T06:04:06.085Z,99182.50
2022-11-24T06:04:53.033Z,99186.84
2022-11-24T06:05:40.144Z,99189.69
2022-11-24T06:06:27.160Z,99194.53
2022-11-24T06:07:14.177Z,99182.81
2022-11-24T06:08:01.218Z,99188.03
2022-11-24T06:08:48.218Z,99194.22
2022-11-24T06:09:39.489Z,99197.22
2022-11-24T06:10:26.644Z,99195.56
2022-11-24T06:11:19.288Z,99194.72
2022-11-24T06:12:10.467Z,99202.06
2022-11-24T06:12:57.431Z,99205.25
2022-11-24T06:13:45.716Z,99207.94
2022-11-24T06:14:33.095Z,99205.41
2022-11-24T06:15:20.295Z,99213.97
2022-11-24T06:16:07.418Z,99215.28
2022-11-24T06:16:54.402Z,99217.63
2022-11-24T06:17:41.812Z,99212.59
2022-11-24T06:18:28.667Z,99214.97
2022-11-24T06:19:15.680Z,99216.31
2022-11-24T06:20:02.601Z,99217.28
2022-11-24T06:21:09.705Z,99219.66
2022-11-24T06:21:57.600Z,99220.62
2022-11-24T06:22:44.543Z,99223.97
2022-11-24T06:23:31.851Z,99225.50
2022-11-24T06:24:18.760Z,99223.81
2022-11-24T06:25:06.115Z,99225.00
2022-11-24T06:25:52.994Z,99226.50
2022-11-24T06:26:39.902Z,99224.84
2022-11-24T06:27:26.934Z,99225.16
2022-11-24T06:28:14.009Z,99227.34
2022-11-24T06:29:00.995Z,99227.19
2022-11-24T06:29:47.989Z,99225.00
2022-11-24T06:30:34.956Z,99227.03
2022-11-24T06:31:21.951Z,99236.22
2022-11-24T06:32:09.509Z,99229.69
2022-11-24T06:32:56.561Z,99241.75
2022-11-24T06:33:43.578Z,99233.53
2022-11-24T06:34:30.679Z,99237.38
2022-11-24T06:35:17.879Z,99240.38
2022-11-24T06:36:10.075Z,99239.91
2022-11-24T06:36:57.407Z,99240.72
2022-11-24T06:37:44.458Z,99242.72
2022-11-24T06:38:31.955Z,99244.91
2022-11-24T06:39:18.942Z,99247.09
2022-11-24T06:40:08.441Z,99248.91
2022-11-24T06:41:02.658Z,99251.44
2022-11-24T06:41:53.006Z,99256.63
2022-11-24T06:42:39.950Z,99254.94
2022-11-24T06:43:28.390Z,99258.00
2022-11-24T06:44:15.402Z,99250.12
2022-11-24T06:45:06.077Z,99251.09
2022-11-24T06:45:56.730Z,99252.94
2022-11-24T06:46:43.647Z,99251.78
2022-11-24T06:47:30.544Z,99255.63
2022-11-24T06:48:17.460Z,99253.47
2022-11-24T06:49:04.421Z,99260.81
2022-11-24T06:49:51.321Z,99250.62
2022-11-24T06:50:38.271Z,99252.94
2022-11-24T06:51:26.244Z,99250.94
2022-11-24T06:52:13.111Z,99250.94
2022-11-24T06:53:00.074Z,99255.63
2022-11-24T06:53:47.096Z,99256.47
2022-11-24T06:54:34.445Z,99249.28
2022-11-24T06:55:22.004Z,99255.31
2022-11-24T06:56:15.703Z,99252.94
2022-11-24T06:57:03.788Z,99257.31
2022-11-24T06:57:50.579Z,99261.34
2022-11-24T06:58:45.341Z,99262.00
2022-11-24T06:59:32.598Z,99258.66
2022-11-24T07:00:19.758Z,99269.19
2022-11-24T07:01:07.088Z,99275.38
2022-11-24T07:01:54.391Z,99275.22
2022-11-24T07:02:45.878Z,99272.69
2022-11-24T07:03:33.225Z,99272.06
2022-11-24T07:04:20.585Z,99273.03
2022-11-24T07:05:08.036Z,99277.22
2022-11-24T07:05:58.613Z,99276.56
2022-11-24T07:06:45.880Z,99277.22
2022-11-24T07:07:32.814Z,99279.91
2022-11-24T07:08:19.837Z,99283.56
2022-11-24T07:09:06.914Z,99285.94
2022-11-24T07:09:53.797Z,99285.25
2022-11-24T07:10:41.135Z,99295.47
2022-11-24T07:11:28.181Z,99293.78
2022-11-24T07:12:15.065Z,99292.94
2022-11-24T07:13:04.182Z,99301.50
2022-11-24T07:13:55.147Z,99302.16
2022-11-24T07:14:45.384Z,99305.53
2022-11-24T07:15:32.344Z,99308.19
2022-11-24T07:16:24.891Z,99311.19
2022-11-24T07:17:11.950Z,99312.19
2022-11-24T07:17:58.933Z,99317.72
2022-11-24T07:18:47.185Z,99320.72
2022-11-24T07:19:34.078Z,99322.06
2022-11-24T07:20:21.029Z,99320.06
2022-11-24T07:21:07.984Z,99319.91
2022-11-24T07:21:54.844Z,99318.41
2022-11-24T07:22:41.766Z,99322.91
2022-11-24T07:23:28.623Z,99323.06
2022-11-24T07:24:15.666Z,99314.34
2022-11-24T07:25:04.916Z,99323.41
2022-11-24T07:25:51.793Z,99324.22
2022-11-24T07:26:38.939Z,99325.91
2022-11-24T07:27:27.403Z,99327.25
2022-11-24T07:28:14.473Z,99323.41
2022-11-24T07:29:01.384Z,99327.94
2022-11-24T07:29:48.284Z,99330.94
2022-11-24T07:30:35.264Z,99324.38
2022-11-24T07:31:25.372Z,99328.94
2022-11-24T07:32:12.380Z,99328.25
2022-11-24T07:33:00.322Z,99328.91
2022-11-24T07:33:51.488Z,99328.75
2022-11-24T07:34:38.457Z,99331.06
2022-11-24T07:35:25.335Z,99322.19
2022-11-24T07:36:12.180Z,99332.72
2022-11-24T07:36:59.199Z,99331.22
2022-11-24T07:37:46.097Z,99331.72
2022-11-24T07:38:33.622Z,99335.72
2022-11-24T07:39:20.659Z,99329.84
2022-11-24T07:40:08.444Z,99335.19
2022-11-24T07:40:55.330Z,99329.69
2022-11-24T07:41:42.321Z,99335.53
2022-11-24T07:42:29.277Z,99329.00
2022-11-24T07:43:20.100Z,99337.34
2022-11-24T07:44:07.308Z,99336.84
2022-11-24T07:44:54.258Z,99339.50
2022-11-24T07:45:41.340Z,99340.16
2022-11-24T07:46:28.363Z,99343.00
2022-11-24T07:47:15.335Z,99338.13
2022-11-24T07:48:02.250Z,99343.00
2022-11-24T07:48:49.696Z,99342.47
2022-11-24T07:49:36.571Z,99341.25
2022-11-24T07:50:23.625Z,99338.28
2022-11-24T07:51:10.863Z,99332.91
2022-11-24T07:51:58.030Z,99333.69
2022-11-24T07:52:45.055Z,99330.50
2022-11-24T07:53:33.171Z,99338.69
2022-11-24T07:54:20.181Z,99336.69
2022-11-24T07:55:08.071Z,99335.81
2022-11-24T07:55:56.801Z,99330.59
2022-11-24T07:56:43.792Z,99329.13
2022-11-24T07:57:30.966Z,99329.81
2022-11-24T07:58:18.007Z,99336.34
2022-11-24T07:59:05.027Z,99336.34
2022-11-24T07:59:51.898Z,99342.03
2022-11-24T08:00:39.126Z,99341.06
2022-11-24T08:01:26.142Z,99341.75
2022-11-24T08:02:13.922Z,99342.53
2022-11-24T08:03:00.955Z,99343.78
2022-11-24T08:03:48.075Z,99339.09
2022-11-24T08:04:37.326Z,99340.72
2022-11-24T08:05:24.259Z,99340.88
2022-11-24T08:06:31.749Z,99339.31
2022-11-24T08:07:19.129Z,99340.66
2022-11-24T08:08:06.075Z,99344.13
2022-11-24T08:08:53.060Z,99342.47
2022-11-24T08:09:39.999Z,99346.63
2022-11-24T08:10:27.240Z,99344.59
2022-11-24T08:11:17.003Z,99346.81
2022-11-24T08:12:04.043Z,99355.66
2022-11-24T08:12:50.970Z,99348.19
2022-11-24T08:13:38.082Z,99351.97
2022-11-24T08:14:25.115Z,99346.25
2022-11-24T08:15:12.181Z,99349.16
2022-11-24T08:15:59.180Z,99354.97
2022-11-24T08:16:47.078Z,99354.16
2022-11-24T08:17:34.078Z,99353.75
2022-11-24T08:18:22.626Z,99356.19
2022-11-24T08:19:12.699Z,99349.16
2022-11-24T08:19:59.674Z,99355.09
2022-11-24T08:20:46.603Z,99361.09
2022-11-24T08:21:33.667Z,99356.62
2022-11-24T08:22:20.626Z,99359.13
2022-11-24T08:23:07.708Z,99355.25
2022-11-24T08:23:57.909Z,99362.00
2022-11-24T08:24:49.010Z,99356.91
2022-11-24T08:25:36.796Z,99363.16
2022-11-24T08:26:25.173Z,99362.88
2022-11-24T08:27:13.411Z,99362.38
2022-11-24T08:28:00.972Z,99363.59
2022-11-24T08:28:48.691Z,99371.81
2022-11-24T08:29:35.817Z,99370.16
2022-11-24T08:30:22.983Z,99366.94
2022-11-24T08:31:14.713Z,99366.41
2022-11-24T08:32:01.734Z,99371.78
2022-11-24T08:32:48.598Z,99366.41
2022-11-24T08:33:35.640Z,99372.25
2022-11-24T08:34:23.171Z,99372.22
2022-11-24T08:35:14.594Z,99369.03
2022-11-24T08:36:09.921Z,99371.72
2022-11-24T08:36:57.033Z,99373.69
2022-11-24T08:37:44.168Z,99369.28
2022-11-24T08:38:31.149Z,99374.72
2022-11-24T08:39:19.418Z,99375.84
2022-11-24T08:40:06.977Z,99374.16
2022-11-24T08:40:53.907Z,99374.47
2022-11-24T08:41:40.927Z,99372.81
2022-11-24T08:42:27.792Z,99371.25
2022-11-24T08:43:14.674Z,99373.12
2022-11-24T08:44:01.877Z,99377.00
2022-11-24T08:44:48.831Z,99376.75
2022-11-24T08:45:41.210Z,99376.56
2022-11-24T08:46:28.593Z,99378.72
2022-11-24T08:47:15.426Z,99383.44
2022-11-24T08:48:02.401Z,99377.59
2022-11-24T08:48:50.432Z,99381.19
2022-11-24T08:49:37.307Z,99372.34
2022-11-24T08:50:25.737Z,99384.28
2022-11-24T08:51:15.530Z,99384.16
2022-11-24T08:52:02.471Z,99384.09
2022-11-24T08:52:49.476Z,99380.22
2022-11-24T08:53:36.461Z,99387.25
2022-11-24T08:54:23.426Z,99382.72
2022-11-24T08:55:10.395Z,99386.38
2022-11-24T08:56:00.624Z,99383.75
2022-11-24T08:56:49.601Z,99389.78
2022-11-24T08:57:36.598Z,99387.03
2022-11-24T08:58:23.516Z,99380.75
2022-11-24T08:59:14.132Z,99390.38
2022-11-24T09:00:00.908Z,99389.84
2022-11-24T09:00:47.832Z,99387.75
2022-11-24T09:01:34.917Z,99396.00
2022-11-24T09:02:21.949Z,99392.16
2022-11-24T09:03:11.281Z,99394.19
2022-11-24T09:03:58.332Z,99387.44
2022-11-24T09:04:45.957Z,99389.69
2022-11-24T09:06:40.584Z,99384.03
2022-11-24T09:07:27.621Z,99397.66
2022-11-24T09:08:14.621Z,99386.44
2022-11-24T09:09:01.697Z,99392.66
2022-11-24T09:09:48.550Z,99395.06
2022-11-24T09:10:36.178Z,99396.88
2022-11-24T09:11:23.676Z,99386.78
2022-11-24T09:12:14.294Z,99387.75
2022-11-24T09:13:01.768Z,99398.53
2022-11-24T09:13:48.671Z,99388.81
2022-11-24T09:14:35.922Z,99389.06
2022-11-24T09:15:23.544Z,99390.91
2022-11-24T09:16:15.654Z,99396.94
2022-11-24T09:17:02.941Z,99398.69
2022-11-24T09:17:50.106Z,99397.38
2022-11-24T09:18:37.501Z,99392.66
2022-11-24T09:19:24.938Z,99395.72
2022-11-24T09:20:12.571Z,99390.63
2022-11-24T09:21:20.155Z,99391.72
2022-11-24T09:22:07.092Z,99396.00
2022-11-24T09:22:54.166Z,99392.88
2022-11-24T09:23:42.027Z,99397.25
2022-11-24T09:24:29.012Z,99397.06
2022-11-24T09:25:15.972Z,99397.31
2022-11-24T09:26:11.164Z,99405.87
2022-11-24T09:26:58.208Z,99393.09
2022-11-24T09:27:45.445Z,99396.16
2022-11-24T09:28:32.406Z,99404.28